createdAt,value
2022-12-07T00:02:01.841Z,100120.00
2022-12-07T00:04:30.575Z,100118.71
2022-12-07T00:06:59.794Z,100117.35
2022-12-07T00:09:31.687Z,100118.39
2022-12-07T00:12:00.430Z,100116.23
2022-12-07T00:14:30.274Z,100119.66
2022-12-07T00:16:59.909Z,100110.15
2022-12-07T00:19:29.459Z,100121.36
2022-12-07T00:21:58.134Z,100115.94
2022-12-07T00:24:27.470Z,100118.52
2022-12-07T00:26:56.147Z,100112.55
2022-12-07T00:29:25.440Z,100113.80
2022-12-07T00:31:54.390Z,100112.86
2022-12-07T00:34:23.910Z,100116.15
2022-12-07T00:36:52.561Z,100108.19
2022-12-07T00:39:21.731Z,100108.24
2022-12-07T00:41:50.489Z,100096.83
2022-12-07T00:44:19.283Z,100108.77
2022-12-07T00:46:48.116Z,100106.95
2022-12-07T00:49:16.763Z,100106.39
2022-12-07T00:51:45.793Z,100100.70
2022-12-07T00:54:14.824Z,100100.48
2022-12-07T00:56:43.766Z,100101.33
2022-12-07T00:59:15.686Z,100103.09
2022-12-07T01:01:44.497Z,100102.48
2022-12-07T01:04:14.009Z,100102.65
2022-12-07T01:06:42.812Z,100105.42
2022-12-07T01:09:15.886Z,100105.04
2022-12-07T01:11:45.442Z,100106.70
2022-12-07T01:14:14.268Z,100102.56
2022-12-07T01:16:43.087Z,100100.73
2022-12-07T01:19:14.733Z,100092.73
2022-12-07T01:21:43.562Z,100092.57
2022-12-07T01:24:12.770Z,100094.90
2022-12-07T01:26:41.551Z,100086.16
2022-12-07T01:29:11.309Z,100087.42
2022-12-07T01:31:39.948Z,100086.23
2022-12-07T01:34:12.025Z,100084.73
2022-12-07T01:36:40.672Z,100088.84
2022-12-07T01:39:11.429Z,100090.17
2022-12-07T01:41:43.813Z,100090.73
2022-12-07T01:44:17.867Z,100088.20
2022-12-07T01:46:48.849Z,100090.23
2022-12-07T01:49:23.990Z,100088.38
2022-12-07T01:51:58.417Z,100086.78
2022-12-07T01:54:27.543Z,100084.48
2022-12-07T01:56:58.946Z,100085.69
2022-12-07T01:59:28.439Z,100080.93
2022-12-07T02:01:57.874Z,100068.81
2022-12-07T02:04:26.680Z,100078.55
2022-12-07T02:06:56.557Z,100075.36
2022-12-07T02:09:25.377Z,100073.56
2022-12-07T02:11:55.790Z,100073.48
2022-12-07T02:14:26.743Z,100073.70
2022-12-07T02:17:08.748Z,100071.91
2022-12-07T02:20:10.624Z,100067.72
2022-12-07T02:22:55.467Z,100059.99
2022-12-07T02:25:42.254Z,100057.77
2022-12-07T02:28:18.204Z,100053.20
2022-12-07T02:30:52.613Z,100048.58
2022-12-07T02:33:27.849Z,100042.18
2022-12-07T02:36:03.630Z,100044.02
2022-12-07T02:38:36.070Z,100035.73
2022-12-07T02:41:10.902Z,100040.61
2022-12-07T02:43:43.499Z,100043.02
2022-12-07T02:46:15.740Z,100045.77
2022-12-07T02:48:46.252Z,100047.84
2022-12-07T02:51:15.579Z,100047.29
2022-12-07T02:53:45.792Z,100045.00
2022-12-07T02:56:25.793Z,100046.15
2022-12-07T02:59:03.642Z,100043.98
2022-12-07T03:01:41.822Z,100047.52
2022-12-07T03:04:20.661Z,100046.55
2022-12-07T03:06:55.072Z,100044.31
2022-12-07T03:09:31.086Z,100049.63
2022-12-07T03:12:09.682Z,100048.82
2022-12-07T03:14:43.755Z,100044.27
2022-12-07T03:17:17.702Z,100051.11
2022-12-07T03:19:49.630Z,100040.39
2022-12-07T03:22:23.099Z,100050.63
2022-12-07T03:24:54.769Z,100045.54
2022-12-07T03:27:28.553Z,100044.60
2022-12-07T03:30:03.170Z,100045.01
2022-12-07T03:32:38.116Z,100045.89
2022-12-07T03:35:13.055Z,100040.73
2022-12-07T03:37:48.027Z,100036.77
2022-12-07T03:40:23.739Z,100042.45
2022-12-07T03:42:54.509Z,100033.48
2022-12-07T03:45:31.316Z,100033.77
2022-12-07T03:48:07.167Z,100030.34
2022-12-07T03:50:43.013Z,100034.55
2022-12-07T03:53:19.129Z,100034.68
2022-12-07T03:55:49.580Z,100034.44
2022-12-07T03:58:22.613Z,100031.48
2022-12-07T04:00:52.342Z,100034.48
2022-12-07T04:03:21.310Z,100029.31
2022-12-07T04:05:50.204Z,100031.34
2022-12-07T04:08:18.928Z,100033.64
2022-12-07T04:10:47.840Z,100035.45
2022-12-07T04:13:16.751Z,100033.40
2022-12-07T04:15:45.977Z,100020.59
2022-12-07T04:18:15.890Z,100028.10
2022-12-07T04:20:45.540Z,100019.11
2022-12-07T04:23:14.593Z,100010.61
2022-12-07T04:25:45.247Z,100008.80
2022-12-07T04:28:14.711Z,100010.13
2022-12-07T04:30:43.774Z,100010.19
2022-12-07T04:33:12.447Z,100008.23
2022-12-07T04:35:45.797Z,100009.55
2022-12-07T04:38:14.755Z,100005.34
2022-12-07T04:40:43.599Z,100007.63
2022-12-07T04:43:12.636Z,100010.11
2022-12-07T04:45:46.688Z,99993.31
2022-12-07T04:48:15.654Z,100007.66
2022-12-07T04:50:46.427Z,99990.19
2022-12-07T04:53:16.888Z,99997.95
2022-12-07T04:55:46.881Z,99999.84
2022-12-07T04:58:16.712Z,99996.96
2022-12-07T05:00:45.416Z,99982.30
2022-12-07T05:03:15.244Z,99994.23
2022-12-07T05:05:46.992Z,99989.43
2022-12-07T05:08:18.186Z,99985.23
2022-12-07T05:10:46.955Z,99983.41
2022-12-07T05:13:18.149Z,99983.11
2022-12-07T05:15:48.249Z,99979.96
2022-12-07T05:18:17.294Z,99978.52
2022-12-07T05:20:46.727Z,99949.88
2022-12-07T05:23:15.698Z,99973.91
2022-12-07T05:25:44.681Z,99977.05
2022-12-07T05:28:13.536Z,99966.36
2022-12-07T05:30:42.864Z,99971.82
2022-12-07T05:33:12.144Z,99970.20
2022-12-07T05:35:41.239Z,99971.55
2022-12-07T05:38:10.164Z,99970.35
2022-12-07T05:40:39.186Z,99972.96
2022-12-07T05:43:07.819Z,99971.67
2022-12-07T05:45:36.594Z,99971.46
2022-12-07T05:48:06.471Z,99971.14
2022-12-07T05:50:35.161Z,99959.35
2022-12-07T05:53:03.954Z,99967.15
2022-12-07T05:55:33.091Z,99961.84
2022-12-07T05:58:20.353Z,99950.45
2022-12-07T06:00:51.291Z,99962.65
2022-12-07T06:03:20.643Z,99953.30
2022-12-07T06:05:49.680Z,99962.74
2022-12-07T06:08:19.022Z,99963.21
2022-12-07T06:11:11.484Z,99965.94
2022-12-07T06:13:45.478Z,99958.80
2022-12-07T06:16:17.323Z,99962.77
2022-12-07T06:18:47.872Z,99963.86
2022-12-07T06:21:17.855Z,99964.70
2022-12-07T06:23:48.626Z,99965.56
2022-12-07T06:26:17.828Z,99963.32
2022-12-07T06:28:48.890Z,99963.71
2022-12-07T06:31:17.841Z,99952.82
2022-12-07T06:33:47.831Z,99957.39
2022-12-07T06:36:16.991Z,99960.52
2022-12-07T06:38:53.727Z,99959.45
2022-12-07T06:41:23.112Z,99961.75
2022-12-07T06:43:55.987Z,99961.30
2022-12-07T06:46:25.358Z,99959.11
2022-12-07T06:48:54.433Z,99959.61
2022-12-07T06:51:23.299Z,99959.30
2022-12-07T06:53:52.273Z,99957.36
2022-12-07T06:56:21.160Z,99958.98
2022-12-07T06:58:50.464Z,99959.31
2022-12-07T07:01:20.096Z,99954.76
2022-12-07T07:03:49.055Z,99955.83
2022-12-07T07:06:17.781Z,99950.25
2022-12-07T07:08:46.735Z,99953.17
2022-12-07T07:11:15.485Z,99951.37
2022-12-07T07:13:44.742Z,99943.13
2022-12-07T07:16:14.492Z,99947.98
2022-12-07T07:18:43.162Z,99948.17
2022-12-07T07:21:12.032Z,99952.05
2022-12-07T07:23:40.684Z,99951.79
2022-12-07T07:26:09.439Z,99953.63
2022-12-07T07:28:38.990Z,99955.35
2022-12-07T07:31:08.047Z,99953.09
2022-12-07T07:33:37.540Z,99953.14
2022-12-07T07:36:07.821Z,99955.56
2022-12-07T07:38:36.595Z,99956.33
2022-12-07T07:41:05.759Z,99952.77
2022-12-07T07:43:34.889Z,99947.10
2022-12-07T07:46:03.770Z,99933.30
2022-12-07T07:48:32.590Z,99945.83
2022-12-07T07:51:01.359Z,99945.45
2022-12-07T07:53:30.154Z,99944.66
2022-12-07T07:55:58.833Z,99946.36
2022-12-07T07:58:28.181Z,99946.55
2022-12-07T08:00:56.871Z,99938.55
2022-12-07T08:03:25.579Z,99926.96
2022-12-07T08:05:54.279Z,99935.77
2022-12-07T08:08:22.933Z,99933.36
2022-12-07T08:10:51.622Z,99932.77
2022-12-07T08:13:20.468Z,99931.30
2022-12-07T08:15:49.633Z,99924.52
2022-12-07T08:18:18.525Z,99919.65
2022-12-07T08:20:47.470Z,99919.34
2022-12-07T08:23:16.293Z,99921.10
2022-12-07T08:25:45.326Z,99924.27
2022-12-07T08:28:14.085Z,99925.46
2022-12-07T08:30:42.901Z,99913.71
2022-12-07T08:33:12.020Z,99920.27
2022-12-07T08:35:40.657Z,99925.41
2022-12-07T08:38:09.449Z,99918.98
2022-12-07T08:40:38.406Z,99921.11
2022-12-07T08:43:07.048Z,99922.95
2022-12-07T08:45:36.085Z,99921.17
2022-12-07T08:48:10.499Z,99915.56
2022-12-07T08:50:44.424Z,99913.73
2022-12-07T08:53:16.727Z,99905.24
2022-12-07T08:55:47.270Z,99905.63
2022-12-07T08:58:16.300Z,99903.42
2022-12-07T09:00:44.940Z,99896.59
2022-12-07T09:03:13.933Z,99896.53
2022-12-07T09:05:42.781Z,99891.29
2022-12-07T09:08:11.848Z,99877.09
2022-12-07T09:10:40.668Z,99870.19
2022-12-07T09:13:09.382Z,99880.92
2022-12-07T09:15:38.429Z,99877.31
2022-12-07T09:18:07.303Z,99878.95
2022-12-07T09:20:36.164Z,99873.48
2022-12-07T09:23:07.062Z,99872.52
2022-12-07T09:25:36.175Z,99874.88
2022-12-07T09:28:05.425Z,99872.71
2022-12-07T09:30:47.234Z,99861.32
2022-12-07T09:33:22.942Z,99860.43
2022-12-07T09:35:52.637Z,99860.46
2022-12-07T09:38:21.583Z,99856.81
2022-12-07T09:40:50.239Z,99856.04
2022-12-07T09:43:22.678Z,99849.64
2022-12-07T09:45:54.675Z,99843.30
2022-12-07T09:48:26.756Z,99843.66
2022-12-07T09:50:58.236Z,99843.83
2022-12-07T09:53:31.024Z,99844.80
2022-12-07T09:56:01.037Z,99840.58
2022-12-07T09:58:31.375Z,99836.30
2022-12-07T10:01:10.557Z,99827.34
2022-12-07T10:03:40.902Z,99829.36
2022-12-07T10:06:13.458Z,99828.76
2022-12-07T10:08:43.735Z,99823.23
2022-12-07T10:11:12.603Z,99822.09
2022-12-07T10:13:44.133Z,99819.11
2022-12-07T10:16:35.887Z,99818.42
2022-12-07T10:19:20.585Z,99812.39
2022-12-07T10:22:10.322Z,99812.05
2022-12-07T10:24:41.343Z,99809.71
2022-12-07T10:27:21.228Z,99805.89
2022-12-07T10:29:51.980Z,99803.48
2022-12-07T10:32:31.730Z,99806.61
2022-12-07T10:35:22.562Z,99807.75
2022-12-07T10:37:52.128Z,99812.80
2022-12-07T10:40:31.525Z,99811.48
2022-12-07T10:43:06.580Z,99805.27
2022-12-07T10:46:02.539Z,99800.66
2022-12-07T10:48:42.091Z,99785.27
2022-12-07T10:51:18.863Z,99789.42
2022-12-07T10:53:59.812Z,99786.92
2022-12-07T10:56:41.756Z,99779.89
2022-12-07T10:59:29.431Z,99778.81
2022-12-07T11:02:22.030Z,99777.33
2022-12-07T11:05:06.347Z,99774.71
2022-12-07T11:07:44.084Z,99767.01
2022-12-07T11:10:19.874Z,99771.94
2022-12-07T11:13:31.804Z,99772.81
2022-12-07T11:16:30.497Z,99773.77
2022-12-07T11:19:18.051Z,99766.99
2022-12-07T11:21:54.150Z,99759.59
2022-12-07T11:24:28.453Z,99753.82
2022-12-07T11:27:07.610Z,99750.46
2022-12-07T11:29:51.543Z,99746.80
2022-12-07T11:32:35.030Z,99742.48
2022-12-07T11:35:11.761Z,99741.89
2022-12-07T11:40:21.226Z,99740.39
2022-12-07T11:42:55.972Z,99739.52
2022-12-07T11:45:26.781Z,99736.55
2022-12-07T11:47:59.675Z,99736.48
2022-12-07T11:50:37.047Z,99733.98
2022-12-07T11:53:17.803Z,99730.83
2022-12-07T11:55:52.047Z,99727.36
2022-12-07T11:58:24.141Z,99727.01
2022-12-07T12:01:04.135Z,99722.64
2022-12-07T12:03:39.878Z,99722.64
2022-12-07T12:06:08.703Z,99705.16
2022-12-07T12:11:48.041Z,99715.48
2022-12-07T12:14:33.601Z,99713.36
2022-12-07T12:17:24.154Z,99721.73
2022-12-07T12:20:05.015Z,99722.34
2022-12-07T12:22:39.274Z,99704.13
2022-12-07T12:25:19.980Z,99717.51
2022-12-07T12:27:50.929Z,99713.48
2022-12-07T12:30:33.277Z,99712.55
2022-12-07T12:33:18.559Z,99711.56
2022-12-07T12:35:47.558Z,99717.58
2022-12-07T12:38:49.962Z,99712.52
2022-12-07T12:42:01.539Z,99711.53
2022-12-07T12:44:57.495Z,99709.59
2022-12-07T12:47:42.265Z,99710.07
2022-12-07T12:50:32.474Z,99705.46
2022-12-07T12:53:22.440Z,99698.49
2022-12-07T12:56:27.661Z,99701.27
2022-12-07T12:59:24.171Z,99701.70
2022-12-07T13:01:54.219Z,99687.52
2022-12-07T13:04:49.817Z,99687.13
2022-12-07T13:08:04.915Z,99703.45
2022-12-07T13:10:40.984Z,99702.88
2022-12-07T13:13:32.504Z,99707.00
2022-12-07T13:16:39.493Z,99710.64
2022-12-07T13:19:43.104Z,99714.35
2022-12-07T13:22:47.762Z,99714.95
2022-12-07T13:25:27.839Z,99718.22
2022-12-07T13:28:02.644Z,99721.63
2022-12-07T13:30:31.173Z,99725.46
2022-12-07T13:33:00.763Z,99732.73
2022-12-07T13:35:33.434Z,99736.33
2022-12-07T13:38:05.958Z,99734.70
2022-12-07T13:40:34.644Z,99738.24
2022-12-07T13:43:05.936Z,99741.82
2022-12-07T13:45:51.742Z,99740.58
2022-12-07T13:48:28.790Z,99738.42
2022-12-07T13:50:58.637Z,99748.58
2022-12-07T13:53:30.710Z,99747.49
2022-12-07T13:56:01.540Z,99750.77
2022-12-07T13:58:33.715Z,99747.06
2022-12-07T14:01:03.022Z,99752.45
2022-12-07T14:03:34.625Z,99752.70
2022-12-07T14:06:20.245Z,99760.25
2022-12-07T14:08:54.449Z,99766.38
2022-12-07T14:11:31.371Z,99759.10
2022-12-07T14:14:02.202Z,99772.25
2022-12-07T14:16:32.478Z,99758.77
2022-12-07T14:19:03.238Z,99773.33
2022-12-07T14:21:33.962Z,99774.05
2022-12-07T14:24:13.077Z,99779.79
2022-12-07T14:26:42.566Z,99784.95
2022-12-07T14:29:23.192Z,99786.92
2022-12-07T14:31:53.649Z,99791.87
2022-12-07T14:34:23.109Z,99792.71
2022-12-07T14:36:52.217Z,99804.40
2022-12-07T14:39:21.598Z,99796.11
2022-12-07T14:41:53.608Z,99796.65
2022-12-07T14:44:26.884Z,99798.79
2022-12-07T14:49:45.799Z,99802.91
2022-12-07T14:55:15.270Z,99802.48
2022-12-07T14:57:44.205Z,99805.36
2022-12-07T15:00:18.199Z,99807.08
2022-12-07T15:02:48.806Z,99806.97
2022-12-07T15:05:18.583Z,99809.88
2022-12-07T15:07:49.206Z,99807.66
2022-12-07T15:10:24.118Z,99805.31
2022-12-07T15:12:53.877Z,99806.70
2022-12-07T15:15:22.726Z,99813.23
2022-12-07T15:17:51.487Z,99811.84
2022-12-07T15:20:20.299Z,99811.63
2022-12-07T15:22:48.973Z,99806.99
2022-12-07T15:25:17.812Z,99810.60
2022-12-07T15:27:48.430Z,99817.02
2022-12-07T15:30:17.735Z,99814.89
2022-12-07T15:32:50.747Z,99815.30
2022-12-07T15:35:19.737Z,99810.13
2022-12-07T15:37:48.613Z,99815.77
2022-12-07T15:40:17.666Z,99814.91
2022-12-07T15:42:46.534Z,99817.86
2022-12-07T15:45:15.647Z,99818.24
2022-12-07T15:50:34.370Z,99811.22
2022-12-07T15:53:03.064Z,99811.81
2022-12-07T15:55:32.182Z,99812.19
2022-12-07T15:58:01.634Z,99812.88
2022-12-07T16:00:30.434Z,99788.05
2022-12-07T16:02:59.401Z,99814.03
2022-12-07T16:05:28.593Z,99815.04
2022-12-07T16:07:57.675Z,99809.55
2022-12-07T16:10:26.493Z,99814.00
2022-12-07T16:12:55.638Z,99802.14
2022-12-07T16:15:27.232Z,99815.41
2022-12-07T16:17:56.615Z,99814.98
2022-12-07T16:20:25.935Z,99817.83
2022-12-07T16:22:54.901Z,99819.30
2022-12-07T16:25:23.680Z,99816.61
2022-12-07T16:27:53.395Z,99819.52
2022-12-07T16:30:22.408Z,99815.58
2022-12-07T16:32:51.189Z,99814.33
2022-12-07T16:35:20.147Z,99812.55
2022-12-07T16:37:48.923Z,99800.54
2022-12-07T16:40:17.895Z,99815.23
2022-12-07T16:42:46.711Z,99816.02
2022-12-07T16:45:19.475Z,99810.71
2022-12-07T16:47:50.095Z,99806.71
2022-12-07T16:50:19.198Z,99806.36
2022-12-07T16:52:48.106Z,99806.33
2022-12-07T16:55:17.212Z,99804.63
2022-12-07T16:57:45.882Z,99809.59
2022-12-07T17:00:16.143Z,99806.21
2022-12-07T17:02:45.293Z,99807.33
2022-12-07T17:05:14.241Z,99806.48
2022-12-07T17:07:43.179Z,99804.30
2022-12-07T17:10:12.678Z,99801.63
2022-12-07T17:12:41.861Z,99796.67
2022-12-07T17:15:17.804Z,99794.70
2022-12-07T17:17:47.844Z,99796.52
2022-12-07T17:20:17.749Z,99795.59
2022-12-07T17:22:47.067Z,99792.54
2022-12-07T17:25:16.921Z,99791.92
2022-12-07T17:27:46.648Z,99796.36
2022-12-07T17:30:16.459Z,99799.36
2022-12-07T17:32:45.619Z,99795.23
2022-12-07T17:35:14.562Z,99792.88
2022-12-07T17:37:47.488Z,99799.00
2022-12-07T17:40:20.084Z,99799.03
2022-12-07T17:42:50.830Z,99796.07
2022-12-07T17:45:22.777Z,99797.03
2022-12-07T17:47:52.350Z,99800.95
2022-12-07T17:50:41.169Z,99805.97
2022-12-07T17:53:11.884Z,99806.58
2022-12-07T17:56:19.487Z,99807.20
2022-12-07T17:58:29.393Z,99810.21
2022-12-07T18:00:58.206Z,99816.33
2022-12-07T18:03:27.640Z,99811.16
2022-12-07T18:05:56.552Z,99809.54
2022-12-07T18:08:25.350Z,99805.05
2022-12-07T18:10:59.583Z,99801.06
2022-12-07T18:13:37.530Z,99801.33
2022-12-07T18:16:09.154Z,99799.62
2022-12-07T18:18:38.250Z,99800.56
2022-12-07T18:21:13.465Z,99802.44
2022-12-07T18:23:43.510Z,99801.73
2022-12-07T18:26:13.536Z,99796.61
2022-12-07T18:28:43.343Z,99795.04
2022-12-07T18:31:15.488Z,99791.54
2022-12-07T18:33:46.281Z,99797.81
2022-12-07T18:36:16.327Z,99797.42
2022-12-07T18:38:45.462Z,99793.70
2022-12-07T18:41:15.630Z,99799.32
2022-12-07T18:43:44.462Z,99800.95
2022-12-07T18:46:14.899Z,99805.24
2022-12-07T18:48:43.932Z,99801.29
2022-12-07T18:51:14.778Z,99803.96
2022-12-07T18:53:44.314Z,99802.81
2022-12-07T18:56:14.632Z,99805.20
2022-12-07T18:58:58.909Z,99807.69
2022-12-07T19:01:29.545Z,99804.73
2022-12-07T19:03:59.177Z,99806.36
2022-12-07T19:06:28.271Z,99808.05
2022-12-07T19:08:57.338Z,99805.66
2022-12-07T19:11:47.134Z,99805.98
2022-12-07T19:14:19.424Z,99803.86
2022-12-07T19:16:50.071Z,99806.19
2022-12-07T19:19:22.098Z,99802.70
2022-12-07T19:21:51.238Z,99807.98
2022-12-07T19:24:23.502Z,99808.91
2022-12-07T19:26:53.043Z,99812.96
2022-12-07T19:29:22.311Z,99811.05
2022-12-07T19:31:51.174Z,99817.19
2022-12-07T19:34:20.389Z,99817.19
2022-12-07T19:36:49.537Z,99822.83
2022-12-07T19:39:20.970Z,99818.90
2022-12-07T19:41:49.830Z,99820.90
2022-12-07T19:44:21.229Z,99812.86
2022-12-07T19:46:50.926Z,99820.95
2022-12-07T19:49:20.459Z,99823.80
2022-12-07T19:51:51.104Z,99826.14
2022-12-07T19:54:22.308Z,99819.63
2022-12-07T19:56:52.400Z,99820.25
2022-12-07T19:59:23.075Z,99819.02
2022-12-07T20:01:52.358Z,99805.54
2022-12-07T20:04:23.882Z,99820.47
2022-12-07T20:06:55.096Z,99823.61
2022-12-07T20:09:24.588Z,99817.80
2022-12-07T20:12:12.144Z,99822.20
2022-12-07T20:14:40.974Z,99813.10
2022-12-07T20:17:09.842Z,99825.48
2022-12-07T20:19:39.719Z,99820.26
2022-12-07T20:22:08.813Z,99822.19
2022-12-07T20:24:37.950Z,99823.59
2022-12-07T20:27:07.027Z,99824.15
2022-12-07T20:29:35.847Z,99824.96
2022-12-07T20:32:05.633Z,99814.23
2022-12-07T20:34:34.803Z,99827.91
2022-12-07T20:37:04.216Z,99826.89
2022-12-07T20:39:33.300Z,99830.73
2022-12-07T20:42:20.215Z,99830.38
2022-12-07T20:44:49.031Z,99836.45
2022-12-07T20:47:18.335Z,99833.47
2022-12-07T20:49:47.338Z,99828.14
2022-12-07T20:52:17.060Z,99836.02
2022-12-07T20:54:45.840Z,99834.86
2022-12-07T20:57:14.976Z,99842.27
2022-12-07T20:59:44.117Z,99842.80
2022-12-07T21:02:13.936Z,99847.64
2022-12-07T21:04:43.152Z,99847.73
2022-12-07T21:07:11.945Z,99849.13
2022-12-07T21:09:40.787Z,99833.86
2022-12-07T21:12:10.788Z,99834.36
2022-12-07T21:14:41.317Z,99856.45
2022-12-07T21:17:10.785Z,99861.05
2022-12-07T21:19:40.528Z,99865.71
2022-12-07T21:22:09.405Z,99864.40
2022-12-07T21:24:39.141Z,99864.56
2022-12-07T21:27:08.319Z,99864.33
2022-12-07T21:29:44.305Z,99868.52
2022-12-07T21:32:14.138Z,99868.20
2022-12-07T21:34:43.237Z,99871.27
2022-12-07T21:37:12.004Z,99867.36
2022-12-07T21:39:44.185Z,99862.62
2022-12-07T21:42:14.950Z,99866.73
2022-12-07T21:44:43.984Z,99869.98
2022-12-07T21:47:13.328Z,99880.98
2022-12-07T21:49:42.445Z,99878.00
2022-12-07T21:52:11.371Z,99866.23
2022-12-07T21:54:47.795Z,99878.23
2022-12-07T21:57:17.503Z,99879.86
2022-12-07T21:59:48.038Z,99869.56
2022-12-07T22:02:17.516Z,99879.38
2022-12-07T22:05:11.415Z,99876.63
2022-12-07T22:07:41.441Z,99884.27
2022-12-07T22:10:11.360Z,99881.40
2022-12-07T22:12:42.287Z,99872.58
2022-12-07T22:15:14.384Z,99881.31
2022-12-07T22:17:43.551Z,99881.42
2022-12-07T22:20:12.631Z,99882.67
2022-12-07T22:22:41.412Z,99888.73
2022-12-07T22:25:12.079Z,99888.08
2022-12-07T22:27:42.072Z,99881.88
2022-12-07T22:30:13.058Z,99891.44
2022-12-07T22:32:50.352Z,99886.68
2022-12-07T22:35:19.589Z,99889.23
2022-12-07T22:37:50.327Z,99887.88
2022-12-07T22:40:19.163Z,99886.32
2022-12-07T22:42:48.245Z,99888.73
2022-12-07T22:45:21.499Z,99883.66
2022-12-07T22:47:50.838Z,99886.30
2022-12-07T22:50:20.271Z,99887.82
2022-12-07T22:52:48.983Z,99884.23
2022-12-07T22:55:18.361Z,99882.79
2022-12-07T22:57:47.071Z,99888.30
2022-12-07T23:00:20.462Z,99890.55
2022-12-07T23:02:49.359Z,99891.33
2022-12-07T23:05:21.064Z,99888.11
2022-12-07T23:07:50.455Z,99893.08
2022-12-07T23:10:20.629Z,99893.60
2022-12-07T23:13:07.918Z,99891.64
2022-12-07T23:15:38.964Z,99894.98
2022-12-07T23:18:08.158Z,99900.50
2022-12-07T23:20:37.195Z,99905.63
2022-12-07T23:23:06.141Z,99905.95
2022-12-07T23:25:35.141Z,99906.05
2022-12-07T23:28:07.457Z,99888.61
2022-12-07T23:30:38.947Z,99901.77
2022-12-07T23:33:07.772Z,99894.98
2022-12-07T23:35:36.880Z,99902.75
2022-12-07T23:38:06.275Z,99898.71
2022-12-07T23:40:36.179Z,99905.66
2022-12-07T23:43:08.665Z,99903.80
2022-12-07T23:45:40.473Z,99907.98
2022-12-07T23:48:10.207Z,99906.80
2022-12-07T23:50:39.012Z,99911.02
2022-12-07T23:53:07.764Z,99909.91
2022-12-07T23:55:36.573Z,99907.81
2022-12-07T23:58:05.252Z,99911.11
